메인 페이지
METAR-TAF:

METAR-TAF

공항 :

몽고메리, 앨라배마, 미국

위도: 32-18-01N, 경도: 086-24-22W, 고도: 67m

현재 날씨관측

예보는 1 시간 22분 전, 09:53시(UTC)에 발표되었습니다.
남동4kt
온도 14°C
습도 94%
기압 1018 hPa
시정: 14.5km
맑음

METAR: KMGM 060953Z AUTO 13004KT 9SM CLR 14/13 A3005 RMK AO2 SLP173 T01390128

시각: 06:15 (11:15 UTC)

예보

예보는 5 시간 55분 전, 05:20시(UTC)에 발표되었습니다.
예보 대상 시간: 06일 06시부터 07일 06시까지 (UTC)
여러 방향의 바람 4kt
시정: 10km
고도 7000ft 상공 구름 보통
고도 25000ft 상공 구름 많음

TAF: KMGM 060520Z 0606/0706 VRB04KT P6SM SCT070 BKN250

4,000개 이상의 공항 관측 자료 및 예보 (METAR 및 TAF 보고).

지도상에서 검색 가능한 기상관측소가 노란 점과 빨간 점으로 표시되어 있습니다.

기상관측소 명을 보려면 표시 위로 마우스를 이동하세요.

날씨 관측과 예보를 보려면 클릭하세요.

지도 변경 : 확대하려면 엑스 표시가 있는 녹색 버튼, 축소하려면 빼기 표시가 있는 녹색 버튼, 다음 페이지의 지도를 보려면 녹색 화살표를 클릭하세요.


METAR-TAF: